Garcia Miguel — CUGT9 — position and weather

sailwx.info

Track history (hours):
 
Tides and Currents Weather Stations Pressure Air Temp Water Temp Dewpoint Dewpoint Depression Visibility Wind Speed Wind Dir Waves Ship Positions

Garcia Miguel

Last reported at 2015-May-03 21:10 UTC. Time now 2015-May-05 03:11 UTC.
Position N 39°16' W 009°24'.

Length 20 m.

Type: Fishing. MMSI: 263500286.

Date/timePositionNaut miles runAvg speedWind from/ knotsBaromVisibWave heightAir tempDewpointWater temp
2015-May-03 21:10N 39°16' W 009°24'5 7.5
2015-May-03 20:33N 39°12' W 009°26'8 7.6
2015-May-03 19:33N 39°05' W 009°29'8 7.5
2015-May-03 18:32N 38°58' W 009°33'8 7.9
2015-May-03 17:33N 38°51' W 009°37'7 7.5
2015-May-03 16:34N 38°44' W 009°42'8 7.8
2015-May-03 15:33N 38°37' W 009°47'8 7.9
2015-May-03 14:33N 38°30' W 009°52'8 7.9
2015-May-03 13:32N 38°23' W 009°57'9 7.7
2015-May-03 12:26N 38°16' W 010°02'10 8.0
2015-May-03 11:11N 38°07' W 010°09'9 7.8
2015-May-03 10:06N 37°60' W 010°14'22 7.9
2015-May-03 07:17N 37°40' W 010°26'6 7.7
2015-May-03 06:33N 37°35' W 010°30'8 7.4
2015-May-03 05:32N 37°28' W 010°34'11 7.6
2015-May-03 04:09N 37°19' W 010°40'30 7.4
2015-May-03 00:06N 36°52' W 010°57'5 7.4
2015-May-02 23:24N 36°48' W 011°00'3 0.3
2015-May-02 14:34N 36°46' W 011°03'2 1.7
2015-May-02 13:28N 36°45' W 011°01'0 0.4
2015-May-02 12:33N 36°45' W 011°01'0 0.5
2015-May-02 11:32N 36°44' W 011°02'1 0.6
2015-May-02 10:34N 36°45' W 011°02'4 3.1
2015-May-02 09:08N 36°41' W 011°05'3 5.2
2015-May-02 08:33N 36°40' W 011°08'0 0.4
2015-May-02 07:33N 36°40' W 011°09'1 1.0
2015-May-02 06:20N 36°39' W 011°10'7 3.8
2015-May-02 04:32N 36°43' W 011°03'3 2.6
2015-May-02 03:29N 36°46' W 011°03'3 3.7
2015-May-02 02:33N 36°43' W 011°06'6 5.8
2015-May-02 01:33N 36°39' W 011°11'3 3.1
2015-May-02 00:33N 36°40' W 011°08'0 0.3
2015-May-01 23:33N 36°40' W 011°08'0 0.5
2015-May-01 22:33N 36°40' W 011°08'0 0.1
2015-May-01 21:33N 36°39' W 011°08'0 0.3
2015-May-01 20:33N 36°39' W 011°08'0 0.4
2015-May-01 19:32N 36°40' W 011°08'0 0.1
2015-May-01 18:13N 36°40' W 011°08'4 0.2
2015-Apr-30 17:22N 36°40' W 011°13'1 0.9
2015-Apr-30 16:34N 36°40' W 011°13'1 0.7
2015-Apr-30 15:30N 36°41' W 011°13'  
Track history (hours):
 
Tides and Currents Weather Stations Pressure Air Temp Water Temp Dewpoint Dewpoint Depression Visibility Wind Speed Wind Dir Waves Ship Positions

Garcia Miguel

Last reported at 2015-May-03 21:10 UTC. Time now 2015-May-05 03:11 UTC.
Position N 39°16' W 009°24'.

Length 20 m.

Type: Fishing. MMSI: 263500286.

Date/timePositionNaut miles runAvg speedWind from/ knotsBaromVisibWave heightAir tempDewpointWater temp
2015-May-03 21:10N 39°16' W 009°24'5 7.5
2015-May-03 20:33N 39°12' W 009°26'8 7.6
2015-May-03 19:33N 39°05' W 009°29'8 7.5
2015-May-03 18:32N 38°58' W 009°33'8 7.9
2015-May-03 17:33N 38°51' W 009°37'7 7.5
2015-May-03 16:34N 38°44' W 009°42'8 7.8
2015-May-03 15:33N 38°37' W 009°47'8 7.9
2015-May-03 14:33N 38°30' W 009°52'8 7.9
2015-May-03 13:32N 38°23' W 009°57'9 7.7
2015-May-03 12:26N 38°16' W 010°02'10 8.0
2015-May-03 11:11N 38°07' W 010°09'9 7.8
2015-May-03 10:06N 37°60' W 010°14'22 7.9
2015-May-03 07:17N 37°40' W 010°26'6 7.7
2015-May-03 06:33N 37°35' W 010°30'8 7.4
2015-May-03 05:32N 37°28' W 010°34'11 7.6
2015-May-03 04:09N 37°19' W 010°40'30 7.4
2015-May-03 00:06N 36°52' W 010°57'5 7.4
2015-May-02 23:24N 36°48' W 011°00'3 0.3
2015-May-02 14:34N 36°46' W 011°03'2 1.7
2015-May-02 13:28N 36°45' W 011°01'0 0.4
2015-May-02 12:33N 36°45' W 011°01'0 0.5
2015-May-02 11:32N 36°44' W 011°02'1 0.6
2015-May-02 10:34N 36°45' W 011°02'4 3.1
2015-May-02 09:08N 36°41' W 011°05'3 5.2
2015-May-02 08:33N 36°40' W 011°08'0 0.4
2015-May-02 07:33N 36°40' W 011°09'1 1.0
2015-May-02 06:20N 36°39' W 011°10'7 3.8
2015-May-02 04:32N 36°43' W 011°03'3 2.6
2015-May-02 03:29N 36°46' W 011°03'3 3.7
2015-May-02 02:33N 36°43' W 011°06'6 5.8
2015-May-02 01:33N 36°39' W 011°11'3 3.1
2015-May-02 00:33N 36°40' W 011°08'0 0.3
2015-May-01 23:33N 36°40' W 011°08'0 0.5
2015-May-01 22:33N 36°40' W 011°08'0 0.1
2015-May-01 21:33N 36°39' W 011°08'0 0.3
2015-May-01 20:33N 36°39' W 011°08'0 0.4
2015-May-01 19:32N 36°40' W 011°08'0 0.1
2015-May-01 18:13N 36°40' W 011°08'4 0.2
2015-Apr-30 17:22N 36°40' W 011°13'1 0.9
2015-Apr-30 16:34N 36°40' W 011°13'1 0.7
2015-Apr-30 15:30N 36°41' W 011°13'  

Dump ship's entire track history